Time;durP1;ratioP1;P1;durP2;ratioP2;P2;SDS_P1;SDS_P2;PMS_P1;PMS_P2;Temp;Humidity;BMP_temperature;BMP_pressure;BME280_temperature;BME280_humidity;BME280_pressure;Samples;Min_cycle;Max_cycle;Signal;HPM_P1;HPM_P2
2022/12/16 00:01:27;;;;;;;31.83;22.80;;;;;;;-0.75;88.80;97495.06;5033147;27;103037;-64
2022/12/16 00:03:57;;;;;;;33.80;21.63;;;;;;;-1.07;90.28;97492.28;5018473;27;104181;-64
2022/12/16 00:06:27;;;;;;;33.20;21.40;;;;;;;-1.05;90.85;97506.84;5035259;27;102550;-64
2022/12/16 00:08:55;;;;;;;31.23;22.17;;;;;;;-0.90;90.31;97505.31;5032112;27;103819;-64
2022/12/16 00:11:24;;;;;;;34.03;22.13;;;;;;;-0.69;89.33;97506.91;5038096;27;103668;-64
2022/12/16 00:13:52;;;;;;;34.90;22.37;;;;;;;-0.79;88.43;97509.13;5029241;27;104308;-64
2022/12/16 00:16:23;;;;;;;35.47;22.03;;;;;;;-0.73;89.15;97510.59;5035501;27;102563;-64
2022/12/16 00:18:51;;;;;;;34.10;22.10;;;;;;;-0.94;89.56;97514.97;5032295;27;102752;-63
2022/12/16 00:21:27;;;;;;;33.33;21.27;;;;;;;-0.85;88.37;97513.72;5035069;27;103262;-63
2022/12/16 00:23:55;;;;;;;29.07;19.17;;;;;;;-0.72;89.92;97515.69;5033607;27;103199;-64
2022/12/16 00:26:23;;;;;;;33.43;21.23;;;;;;;-0.83;88.53;97499.78;5031081;27;102642;-64
2022/12/16 00:28:51;;;;;;;34.13;19.70;;;;;;;-0.53;88.40;97499.28;5036827;27;102736;-64
2022/12/16 00:31:26;;;;;;;32.00;22.27;;;;;;;-0.81;87.99;97499.69;5029421;27;103309;-64
2022/12/16 00:33:56;;;;;;;34.07;22.33;;;;;;;-0.54;88.81;97500.19;5016151;27;103206;-65
2022/12/16 00:36:26;;;;;;;32.37;19.00;;;;;;;-0.28;88.27;97495.44;5028989;27;102602;-65
2022/12/16 00:38:55;;;;;;;34.20;20.80;;;;;;;-0.35;87.74;97503.59;5037563;27;103812;-64
2022/12/16 00:41:22;;;;;;;34.27;22.03;;;;;;;-0.15;87.61;97508.66;5030851;27;103366;-64
2022/12/16 00:43:50;;;;;;;28.00;17.30;;;;;;;-0.14;87.29;97512.97;5033291;27;103275;-65
2022/12/16 00:46:18;;;;;;;26.93;17.80;;;;;;;-0.05;87.80;97507.28;5031674;27;102564;-65
2022/12/16 00:48:48;;;;;;;33.30;21.67;;;;;;;-0.08;86.40;97513.47;5029635;27;102806;-65
2022/12/16 00:51:16;;;;;;;33.60;22.30;;;;;;;0.00;86.35;97515.72;5028723;27;104017;-65
2022/12/16 00:53:43;;;;;;;25.77;17.57;;;;;;;0.07;86.70;97517.09;5028820;27;103199;-65
2022/12/16 00:56:14;;;;;;;26.97;17.73;;;;;;;0.22;85.64;97523.31;5028349;27;102698;-65
2022/12/16 00:58:42;;;;;;;27.13;18.27;;;;;;;0.10;85.58;97522.13;5028647;27;103119;-65
2022/12/16 01:01:11;;;;;;;33.07;20.90;;;;;;;0.02;84.46;97526.03;5024210;27;103266;-65
2022/12/16 01:03:39;;;;;;;29.30;18.70;;;;;;;0.06;85.09;97536.19;5027937;27;103172;-65
2022/12/16 01:06:12;;;;;;;33.47;20.60;;;;;;;-0.09;84.53;97539.53;5030661;27;102554;-65
2022/12/16 01:08:47;;;;;;;31.77;20.73;;;;;;;-0.28;85.35;97541.34;5037297;27;103040;-65
2022/12/16 01:11:15;;;;;;;30.17;19.50;;;;;;;-0.22;85.64;97546.19;5024763;27;103221;-65
2022/12/16 01:13:44;;;;;;;28.10;18.10;;;;;;;-0.25;86.49;97546.34;5029695;27;103198;-65
2022/12/16 01:16:12;;;;;;;31.27;20.60;;;;;;;-0.39;85.76;97544.41;5026546;27;102868;-65
2022/12/16 01:18:40;;;;;;;33.67;20.37;;;;;;;-0.87;87.17;97552.69;5008600;27;102708;-65
2022/12/16 01:21:12;;;;;;;29.90;19.57;;;;;;;-0.63;88.12;97548.16;5026707;27;103254;-65
2022/12/16 01:23:39;;;;;;;29.57;19.77;;;;;;;-0.75;87.43;97546.94;5026079;27;103509;-64
2022/12/16 01:26:07;;;;;;;30.83;19.23;;;;;;;-1.08;88.87;97548.47;5030945;27;102671;-64
2022/12/16 01:28:35;;;;;;;32.80;21.13;;;;;;;-1.08;89.41;97553.66;5034237;27;103786;-64
2022/12/16 01:31:03;;;;;;;29.43;20.37;;;;;;;-0.88;89.35;97556.19;5011483;27;103465;-64
2022/12/16 01:33:32;;;;;;;30.07;19.60;;;;;;;-0.45;89.26;97549.06;5031281;27;103223;-64
2022/12/16 01:36:02;;;;;;;35.80;20.57;;;;;;;-0.77;88.49;97553.97;5034834;27;102650;-64
2022/12/16 01:38:31;;;;;;;30.43;19.93;;;;;;;-0.78;88.26;97552.28;5013407;27;102775;-64
2022/12/16 01:41:00;;;;;;;34.97;22.10;;;;;;;-0.98;89.26;97551.50;5026070;27;103152;-65
2022/12/16 01:43:30;;;;;;;31.73;19.53;;;;;;;-0.85;89.58;97556.06;5022262;27;103374;-65
2022/12/16 01:46:02;;;;;;;31.50;20.67;;;;;;;-0.78;89.60;97562.66;5027878;27;102797;-64
2022/12/16 01:48:38;;;;;;;28.80;20.30;;;;;;;-0.48;89.04;97559.56;5022244;27;102717;-64
2022/12/16 01:51:10;;;;;;;32.53;20.83;;;;;;;-0.74;88.66;97571.97;5027433;27;103967;-65
2022/12/16 01:53:41;;;;;;;30.67;20.23;;;;;;;-0.75;90.12;97570.28;5026315;27;103208;-65
2022/12/16 01:56:13;;;;;;;32.57;20.67;;;;;;;-0.66;88.75;97577.66;5031687;27;102542;-65
2022/12/16 01:58:42;;;;;;;32.67;21.17;;;;;;;-0.66;89.30;97577.66;5029140;27;102666;-64
2022/12/16 02:01:10;;;;;;;34.03;21.83;;;;;;;-0.57;88.18;97585.94;5034977;27;104163;-64
2022/12/16 02:03:38;;;;;;;33.87;19.93;;;;;;;-0.67;88.98;97591.53;5011051;27;103182;-65
2022/12/16 02:06:09;;;;;;;34.60;20.57;;;;;;;-0.40;88.56;97580.81;5021680;27;102655;-64
2022/12/16 02:08:36;;;;;;;23.93;16.50;;;;;;;-0.33;88.12;97584.81;5030920;27;102580;-65
2022/12/16 02:11:25;;;;;;;29.97;19.73;;;;;;;-0.44;88.13;97584.44;5020659;27;103230;-64
2022/12/16 02:14:27;;;;;;;33.40;19.50;;;;;;;-0.63;88.05;97582.72;5029595;27;103245;-64
2022/12/16 02:17:00;;;;;;;32.60;20.70;;;;;;;-0.46;88.03;97586.28;5026116;27;102661;-64
2022/12/16 02:20:04;;;;;;;31.13;21.33;;;;;;;-0.33;87.85;97584.81;5015421;27;102752;-64
2022/12/16 02:22:47;;;;;;;31.80;20.33;;;;;;;-0.28;88.53;97598.44;5023966;27;103261;-64
2022/12/16 02:25:46;;;;;;;24.43;16.23;;;;;;;0.02;88.59;97596.97;5027872;27;103295;-65
2022/12/16 02:28:32;;;;;;;29.30;20.20;;;;;;;-0.10;87.00;97597.56;5028073;27;103803;-65
2022/12/16 02:31:21;;;;;;;28.30;19.47;;;;;;;-0.27;87.00;97582.78;5023245;27;102694;-65
2022/12/16 02:34:14;;;;;;;33.50;20.13;;;;;;;-0.39;87.59;97591.13;5032567;27;103318;-63
2022/12/16 02:36:56;;;;;;;28.63;19.60;;;;;;;-0.61;88.54;97591.25;5027863;27;103235;-63
2022/12/16 02:39:30;;;;;;;32.43;20.33;;;;;;;-0.26;88.45;97591.41;5019928;27;102687;-64
2022/12/16 02:42:06;;;;;;;28.27;19.03;;;;;;;-0.32;87.34;97591.69;5034164;27;103973;-64
2022/12/16 02:44:44;;;;;;;33.67;19.13;;;;;;;-0.27;87.98;97587.97;5028140;27;103340;-63
2022/12/16 02:47:15;;;;;;;23.33;16.00;;;;;;;-0.09;87.19;97591.47;5030638;27;103161;-64
2022/12/16 02:49:52;;;;;;;25.87;17.73;;;;;;;-0.04;86.29;97597.28;5027090;27;102585;-65
2022/12/16 02:52:23;;;;;;;28.17;19.40;;;;;;;-0.20;86.52;97594.56;5031617;27;102754;-65
2022/12/16 02:54:56;;;;;;;28.07;19.67;;;;;;;-0.23;86.62;97596.47;5029191;27;104535;-65
2022/12/16 02:57:44;;;;;;;25.67;16.90;;;;;;;-0.34;87.23;97606.50;5006995;27;103191;-65
2022/12/16 03:00:17;;;;;;;28.63;19.23;;;;;;;-0.55;88.55;97610.91;5009079;27;102978;-64
2022/12/16 03:02:54;;;;;;;27.30;18.53;;;;;;;-0.33;88.72;97610.75;5025276;27;102707;-64
2022/12/16 03:05:26;;;;;;;29.63;20.10;;;;;;;-0.36;86.95;97611.75;5025489;27;103320;-64
2022/12/16 03:07:57;;;;;;;29.63;19.77;;;;;;;-0.34;86.76;97609.09;5024909;27;103309;-63
2022/12/16 03:10:29;;;;;;;31.13;19.83;;;;;;;-0.35;87.85;97608.25;5014052;27;102643;-63
2022/12/16 03:13:00;;;;;;;25.37;17.70;;;;;;;-0.10;87.47;97619.16;5013182;27;102774;-63
2022/12/16 03:15:32;;;;;;;30.43;19.43;;;;;;;-0.01;86.72;97620.50;5031527;27;103259;-63
2022/12/16 03:18:04;;;;;;;26.30;18.77;;;;;;;-0.05;86.70;97613.75;5025539;27;103162;-63
2022/12/16 03:20:36;;;;;;;26.13;17.90;;;;;;;0.03;86.39;97614.22;5035630;27;102647;-63
2022/12/16 03:23:10;;;;;;;25.33;16.53;;;;;;;0.10;86.06;97622.56;5038536;27;104202;-63
2022/12/16 03:25:41;;;;;;;22.87;15.67;;;;;;;0.15;85.49;97624.03;5029748;27;103302;-63
2022/12/16 03:28:22;;;;;;;22.23;14.60;;;;;;;0.09;85.34;97619.13;5037105;27;103195;-63
2022/12/16 03:30:57;;;;;;;28.17;18.70;;;;;;;-0.16;84.49;97623.78;5038174;27;102546;-64
2022/12/16 03:33:29;;;;;;;27.70;17.93;;;;;;;0.03;85.95;97629.00;5037155;27;103483;-63
2022/12/16 03:36:02;;;;;;;28.17;18.13;;;;;;;0.02;86.17;97629.91;5033564;27;103287;-63
2022/12/16 03:38:32;;;;;;;24.70;16.93;;;;;;;0.11;85.73;97635.50;5036314;27;103322;-63
2022/12/16 03:41:02;;;;;;;27.87;18.87;;;;;;;0.07;85.38;97631.34;5033007;27;102524;-63
2022/12/16 03:43:31;;;;;;;27.10;18.07;;;;;;;-0.26;85.91;97638.13;5025024;27;102708;-63
2022/12/16 03:46:03;;;;;;;23.47;16.37;;;;;;;-0.14;85.87;97645.38;5016495;27;102956;-63
2022/12/16 03:48:33;;;;;;;26.00;17.53;;;;;;;-0.28;85.73;97645.97;5036619;27;103171;-63
2022/12/16 03:51:01;;;;;;;25.60;16.90;;;;;;;-0.52;86.57;97641.91;5013243;27;102792;-63
2022/12/16 03:53:29;;;;;;;22.70;15.97;;;;;;;-0.18;87.09;97649.00;5032105;27;102677;-64
2022/12/16 03:55:58;;;;;;;22.93;15.23;;;;;;;-0.14;85.88;97653.97;5032988;27;103322;-64
2022/12/16 03:58:25;;;;;;;23.33;15.00;;;;;;;-0.50;87.48;97657.38;5027186;27;103349;-64
2022/12/16 04:00:53;;;;;;;23.07;15.93;;;;;;;-0.31;86.96;97650.47;5032074;27;102521;-63
2022/12/16 04:03:22;;;;;;;22.70;15.27;;;;;;;-0.25;86.95;97655.38;5033273;27;102751;-64
2022/12/16 04:05:51;;;;;;;25.70;16.53;;;;;;;-0.41;86.04;97667.34;5038236;27;103674;-63
2022/12/16 04:08:19;;;;;;;24.23;16.57;;;;;;;-0.50;86.46;97670.34;5017185;27;103432;-64
2022/12/16 04:24:44;;;;;;;24.07;15.57;;;;;;;-0.78;88.03;97668.97;5034597;27;102742;-65
2022/12/16 04:27:26;;;;;;;25.00;16.03;;;;;;;-0.77;88.06;97685.38;5030414;27;102663;-64
